createdAt,value
2023-11-04T00:01:33.737Z,19.32
2023-11-04T00:06:37.442Z,19.31
2023-11-04T00:11:42.354Z,19.30
2023-11-04T00:16:47.481Z,19.28
2023-11-04T00:21:51.396Z,19.28
2023-11-04T00:26:56.493Z,19.27
2023-11-04T00:32:00.426Z,19.28
2023-11-04T00:37:04.398Z,19.26
2023-11-04T00:42:10.068Z,19.26
2023-11-04T00:47:13.865Z,19.24
2023-11-04T00:52:17.389Z,19.27
2023-11-04T00:57:22.266Z,19.25
2023-11-04T01:02:26.378Z,19.25
2023-11-04T01:07:30.022Z,19.23
2023-11-04T01:12:34.897Z,19.21
2023-11-04T01:17:39.642Z,19.20
2023-11-04T01:22:43.133Z,19.22
2023-11-04T01:27:48.004Z,19.21
2023-11-04T01:32:51.943Z,19.20
2023-11-04T01:37:55.517Z,19.21
2023-11-04T01:43:00.412Z,19.19
2023-11-04T01:48:04.053Z,19.18
2023-11-04T01:53:07.710Z,19.17
2023-11-04T01:58:13.902Z,19.18
2023-11-04T02:03:19.340Z,19.19
2023-11-04T02:08:23.807Z,19.20
2023-11-04T02:13:28.671Z,19.18
2023-11-04T02:18:32.627Z,19.20
2023-11-04T02:23:37.606Z,19.22
2023-11-04T02:28:41.125Z,19.11
2023-11-04T02:33:44.711Z,19.13
2023-11-04T02:38:50.116Z,19.11
2023-11-04T02:43:54.220Z,19.13
2023-11-04T02:48:57.708Z,19.14
2023-11-04T02:54:02.632Z,19.09
2023-11-04T02:59:06.142Z,19.12
2023-11-04T03:04:12.184Z,19.08
2023-11-04T03:09:17.797Z,19.07
2023-11-04T03:14:21.430Z,19.06
2023-11-04T03:19:25.748Z,19.09
2023-11-04T03:24:30.661Z,19.03
2023-11-04T03:29:34.158Z,19.03
2023-11-04T03:34:38.154Z,19.05
2023-11-04T03:39:43.101Z,19.02
2023-11-04T03:44:46.614Z,19.03
2023-11-04T03:49:50.071Z,19.03
2023-11-04T03:54:55.164Z,19.02
2023-11-04T03:59:59.298Z,19.03
2023-11-04T04:05:02.833Z,19.06
2023-11-04T04:10:08.563Z,19.01
2023-11-04T04:15:12.679Z,19.04
2023-11-04T04:20:18.134Z,19.06
2023-11-04T04:25:23.054Z,19.04
2023-11-04T04:30:27.525Z,19.10
2023-11-04T04:35:31.002Z,19.09
2023-11-04T04:40:38.818Z,19.06
2023-11-04T04:45:42.762Z,19.02
2023-11-04T04:50:46.820Z,18.99
2023-11-04T04:55:55.120Z,18.99
2023-11-04T05:00:58.760Z,19.03
2023-11-04T05:06:03.021Z,19.06
2023-11-04T05:11:11.139Z,19.06
2023-11-04T05:16:14.604Z,19.06
2023-11-04T05:21:18.503Z,19.08
2023-11-04T05:26:24.368Z,19.06
2023-11-04T05:31:27.828Z,19.00
2023-11-04T05:36:31.284Z,18.99
2023-11-04T05:41:36.901Z,18.94
2023-11-04T05:46:40.367Z,18.98
2023-11-04T05:51:43.787Z,18.97
2023-11-04T05:56:48.786Z,19.01
2023-11-04T06:01:52.886Z,19.00
2023-11-04T06:06:56.903Z,18.97
2023-11-04T06:12:02.209Z,18.97
2023-11-04T06:17:06.194Z,18.98
2023-11-04T06:22:09.665Z,19.00
2023-11-04T06:27:14.699Z,19.01
2023-11-04T06:32:18.590Z,19.04
2023-11-04T06:37:22.105Z,19.02
2023-11-04T06:42:28.480Z,18.98
2023-11-04T06:47:32.617Z,19.03
2023-11-04T06:52:36.332Z,18.96
2023-11-04T06:57:41.266Z,18.96
2023-11-04T07:02:44.802Z,18.95
2023-11-04T07:07:50.479Z,19.07
2023-11-04T07:12:55.481Z,19.12
2023-11-04T07:17:59.064Z,19.11
2023-11-04T07:23:02.545Z,19.12
2023-11-04T07:28:07.921Z,19.13
2023-11-04T07:33:12.131Z,19.14
2023-11-04T07:38:18.226Z,19.12
2023-11-04T07:43:23.274Z,19.12
2023-11-04T07:48:26.867Z,19.15
2023-11-04T07:53:30.894Z,19.19
2023-11-04T07:58:36.011Z,19.17
2023-11-04T08:03:39.790Z,19.24
2023-11-04T08:08:44.720Z,19.21
2023-11-04T08:13:50.582Z,19.21
2023-11-04T08:18:55.262Z,19.19
2023-11-04T08:23:59.108Z,19.21
2023-11-04T08:29:04.498Z,19.22
2023-11-04T08:34:08.745Z,19.23
2023-11-04T08:39:13.330Z,19.25
2023-11-04T08:44:18.947Z,19.25
2023-11-04T08:49:22.524Z,19.33
2023-11-04T08:54:26.197Z,19.38
2023-11-04T08:59:32.427Z,19.39
2023-11-04T09:04:36.512Z,19.37
2023-11-04T09:09:40.043Z,19.39
2023-11-04T09:14:44.950Z,19.37
2023-11-04T09:19:48.854Z,19.33
2023-11-04T09:24:54.190Z,19.30
2023-11-04T09:30:00.042Z,19.32
2023-11-04T09:35:04.334Z,19.31
2023-11-04T09:40:09.158Z,19.29
2023-11-04T09:45:14.762Z,19.29
2023-11-04T09:50:18.397Z,19.27
2023-11-04T09:55:22.208Z,19.23
2023-11-04T10:00:29.181Z,19.20
2023-11-04T10:05:32.956Z,19.18
2023-11-04T10:10:36.551Z,19.20
2023-11-04T10:15:41.468Z,19.17
2023-11-04T10:20:45.062Z,19.16
2023-11-04T10:25:48.524Z,19.20
2023-11-04T10:30:59.517Z,19.22
2023-11-04T10:36:05.970Z,19.21
2023-11-04T10:41:09.410Z,19.32
2023-11-04T10:46:16.623Z,19.12
2023-11-04T10:51:21.630Z,19.20
2023-11-04T10:56:28.183Z,19.37
2023-11-04T11:01:33.985Z,19.49
2023-11-04T11:06:38.196Z,19.54
2023-11-04T11:11:46.691Z,19.59
2023-11-04T11:17:02.178Z,19.69
2023-11-04T11:22:06.760Z,19.68
2023-11-04T11:27:10.943Z,19.66
2023-11-04T11:32:18.146Z,19.63
2023-11-04T11:37:22.661Z,19.67
2023-11-04T11:42:28.030Z,19.68
2023-11-04T11:47:33.056Z,19.74
2023-11-04T11:52:37.013Z,19.76
2023-11-04T11:57:40.546Z,19.80
2023-11-04T12:02:45.896Z,19.89
2023-11-04T12:07:49.885Z,20.05
2023-11-04T12:12:53.497Z,19.93
2023-11-04T12:18:03.416Z,19.91
2023-11-04T12:23:08.396Z,19.88
2023-11-04T12:28:12.633Z,19.83
2023-11-04T12:33:18.089Z,19.69
2023-11-04T12:38:21.599Z,19.65
2023-11-04T12:43:26.285Z,19.61
2023-11-04T12:48:31.832Z,19.68
2023-11-04T12:53:36.360Z,19.71
2023-11-04T12:58:40.030Z,19.63
2023-11-04T13:03:45.073Z,19.57
2023-11-04T13:08:48.492Z,19.54
2023-11-04T13:13:51.944Z,19.51
2023-11-04T13:18:57.578Z,19.77
2023-11-04T13:24:01.138Z,19.82
2023-11-04T13:29:05.242Z,19.84
2023-11-04T13:34:11.319Z,19.89
2023-11-04T13:39:14.920Z,19.88
2023-11-04T13:44:19.762Z,19.85
2023-11-04T13:49:24.779Z,19.82
2023-11-04T13:54:29.025Z,19.83
2023-11-04T13:59:32.977Z,19.74
2023-11-04T14:04:37.966Z,19.77
2023-11-04T14:09:43.182Z,19.77
2023-11-04T14:14:46.869Z,19.76
2023-11-04T14:19:52.348Z,19.74
2023-11-04T14:24:55.828Z,19.76
2023-11-04T14:30:01.381Z,19.76
2023-11-04T14:35:06.828Z,19.74
2023-11-04T14:40:17.773Z,19.73
2023-11-04T14:45:21.442Z,19.74
2023-11-04T14:50:26.270Z,19.71
2023-11-04T14:55:29.714Z,19.70
2023-11-04T15:00:33.111Z,19.70
2023-11-04T15:05:37.990Z,19.67
2023-11-04T15:10:41.387Z,19.70
2023-11-04T15:15:45.196Z,19.68
2023-11-04T15:20:49.981Z,19.66
2023-11-04T15:25:53.407Z,19.65
2023-11-04T15:30:57.118Z,19.67
2023-11-04T15:36:02.001Z,19.67
2023-11-04T15:41:06.479Z,19.54
2023-11-04T15:46:10.180Z,19.61
2023-11-04T15:51:15.530Z,19.57
2023-11-04T15:56:19.727Z,19.55
2023-11-04T16:01:23.313Z,19.62
2023-11-04T16:06:28.260Z,19.72
2023-11-04T16:11:31.893Z,19.83
2023-11-04T16:16:35.334Z,19.55
2023-11-04T16:21:40.374Z,19.50
2023-11-04T16:26:43.868Z,19.42
2023-11-04T16:31:47.374Z,19.38
2023-11-04T16:36:52.505Z,19.37
2023-11-04T16:41:56.063Z,19.37
2023-11-04T16:47:00.017Z,19.32
2023-11-04T16:52:06.002Z,19.32
2023-11-04T16:57:10.070Z,19.33
2023-11-04T17:02:14.014Z,19.31
2023-11-04T17:07:19.352Z,19.30
2023-11-04T17:12:24.310Z,19.40
2023-11-04T17:17:29.082Z,19.41
2023-11-04T17:22:35.493Z,19.45
2023-11-04T17:27:39.419Z,19.44
2023-11-04T17:32:42.919Z,19.42
2023-11-04T17:37:51.184Z,19.49
2023-11-04T17:42:55.516Z,19.52
2023-11-04T17:47:59.963Z,19.49
2023-11-04T17:53:05.044Z,19.47
2023-11-04T17:58:08.590Z,19.44
2023-11-04T18:03:12.387Z,19.36
2023-11-04T18:08:19.116Z,19.21
2023-11-04T18:13:22.633Z,19.28
2023-11-04T18:18:26.919Z,19.38
2023-11-04T18:23:32.654Z,19.41
2023-11-04T18:28:36.749Z,19.32
2023-11-04T18:33:40.332Z,19.31
2023-11-04T18:38:45.233Z,19.39
2023-11-04T18:43:48.715Z,19.45
2023-11-04T18:48:52.327Z,19.47
2023-11-04T18:53:57.933Z,19.48
2023-11-04T18:59:01.487Z,19.48
2023-11-04T19:04:05.575Z,19.54
2023-11-04T19:09:10.501Z,19.54
2023-11-04T19:14:13.960Z,19.55
2023-11-04T19:19:17.533Z,19.53
2023-11-04T19:24:22.985Z,19.53
2023-11-04T19:29:27.657Z,19.54
2023-11-04T19:34:31.072Z,19.54
2023-11-04T19:39:35.926Z,19.51
2023-11-04T19:44:39.379Z,19.47
2023-11-04T19:49:42.811Z,19.45
2023-11-04T19:54:47.687Z,19.49
2023-11-04T19:59:51.080Z,19.47
2023-11-04T20:04:54.759Z,19.47
2023-11-04T20:09:59.700Z,19.48
2023-11-04T20:15:04.668Z,19.50
2023-11-04T20:20:09.533Z,19.59
2023-11-04T20:25:14.387Z,19.52
2023-11-04T20:30:18.019Z,19.49
2023-11-04T20:35:21.453Z,19.38
2023-11-04T20:40:26.510Z,19.36
2023-11-04T20:45:29.943Z,19.32
2023-11-04T20:50:33.416Z,19.29
2023-11-04T20:55:39.225Z,19.25
2023-11-04T21:00:42.628Z,19.26
2023-11-04T21:05:46.061Z,19.24
2023-11-04T21:10:51.090Z,19.24
2023-11-04T21:15:54.678Z,19.23
2023-11-04T21:20:58.248Z,19.18
2023-11-04T21:26:03.101Z,19.17
2023-11-04T21:31:07.234Z,19.16
2023-11-04T21:36:10.967Z,19.15
2023-11-04T21:41:15.754Z,19.13
2023-11-04T21:46:19.186Z,19.12
2023-11-04T21:51:24.151Z,19.14
2023-11-04T21:56:28.999Z,19.13
2023-11-04T22:01:32.458Z,19.12
2023-11-04T22:06:37.649Z,19.11
2023-11-04T22:11:42.640Z,19.08
2023-11-04T22:16:46.054Z,19.10
2023-11-04T22:21:49.433Z,19.08
2023-11-04T22:26:54.240Z,19.07
2023-11-04T22:31:57.625Z,19.06
2023-11-04T22:37:01.019Z,19.08
2023-11-04T22:42:06.474Z,19.05
2023-11-04T22:47:09.872Z,19.07
2023-11-04T22:52:13.374Z,19.06
2023-11-04T22:57:18.199Z,19.04
2023-11-04T23:02:22.607Z,19.06
2023-11-04T23:07:26.111Z,19.06
2023-11-04T23:12:30.897Z,19.03
2023-11-04T23:17:34.327Z,19.03
2023-11-04T23:22:37.757Z,19.03
2023-11-04T23:27:43.222Z,19.04
2023-11-04T23:32:46.876Z,19.00
2023-11-04T23:37:50.345Z,19.02
2023-11-04T23:42:55.191Z,19.01
2023-11-04T23:47:58.688Z,19.01
2023-11-04T23:53:02.090Z,18.97
2023-11-04T23:58:06.941Z,18.96
